sensor_id;sensor_type;location;lat;lon;timestamp;P1;durP1;ratioP1;P2;durP2;ratioP2
18188;SDS011;9219;50.396;8.546;2023-11-21T00:00:26;86.57;;;9.57;;
18188;SDS011;9219;50.396;8.546;2023-11-21T00:02:53;67.97;;;8.83;;
18188;SDS011;9219;50.396;8.546;2023-11-21T00:05:20;78.30;;;9.57;;
18188;SDS011;9219;50.396;8.546;2023-11-21T00:07:49;242.50;;;17.27;;
18188;SDS011;9219;50.396;8.546;2023-11-21T00:10:18;59.43;;;8.20;;
18188;SDS011;9219;50.396;8.546;2023-11-21T00:17:50;122.23;;;11.57;;
18188;SDS011;9219;50.396;8.546;2023-11-21T00:20:17;104.63;;;10.87;;
18188;SDS011;9219;50.396;8.546;2023-11-21T00:22:44;173.00;;;14.67;;
18188;SDS011;9219;50.396;8.546;2023-11-21T00:25:12;55.27;;;8.80;;
18188;SDS011;9219;50.396;8.546;2023-11-21T00:27:41;20.40;;;5.20;;
18188;SDS011;9219;50.396;8.546;2023-11-21T00:30:08;7.67;;;5.53;;
18188;SDS011;9219;50.396;8.546;2023-11-21T00:32:36;7.70;;;4.97;;
18188;SDS011;9219;50.396;8.546;2023-11-21T00:35:06;8.70;;;4.87;;
18188;SDS011;9219;50.396;8.546;2023-11-21T00:39:17;7.57;;;5.10;;
18188;SDS011;9219;50.396;8.546;2023-11-21T00:41:44;8.70;;;5.47;;
18188;SDS011;9219;50.396;8.546;2023-11-21T00:44:11;8.97;;;4.40;;
18188;SDS011;9219;50.396;8.546;2023-11-21T00:46:38;4.30;;;2.57;;
18188;SDS011;9219;50.396;8.546;2023-11-21T00:49:06;4.17;;;2.83;;
18188;SDS011;9219;50.396;8.546;2023-11-21T00:51:33;5.10;;;2.60;;
18188;SDS011;9219;50.396;8.546;2023-11-21T00:54:00;4.67;;;2.13;;
18188;SDS011;9219;50.396;8.546;2023-11-21T00:56:28;3.13;;;1.70;;
18188;SDS011;9219;50.396;8.546;2023-11-21T01:04:30;2.87;;;1.73;;
18188;SDS011;9219;50.396;8.546;2023-11-21T01:06:58;3.67;;;1.10;;
18188;SDS011;9219;50.396;8.546;2023-11-21T01:09:25;2.07;;;1.13;;
18188;SDS011;9219;50.396;8.546;2023-11-21T01:11:52;3.97;;;1.33;;
18188;SDS011;9219;50.396;8.546;2023-11-21T01:14:19;1.47;;;1.10;;
18188;SDS011;9219;50.396;8.546;2023-11-21T01:16:46;2.30;;;1.60;;
18188;SDS011;9219;50.396;8.546;2023-11-21T01:19:14;3.60;;;1.60;;
18188;SDS011;9219;50.396;8.546;2023-11-21T01:21:43;2.87;;;2.13;;
18188;SDS011;9219;50.396;8.546;2023-11-21T01:32:07;2.53;;;1.70;;
18188;SDS011;9219;50.396;8.546;2023-11-21T01:34:35;2.53;;;1.83;;
18188;SDS011;9219;50.396;8.546;2023-11-21T01:37:02;3.83;;;2.33;;
18188;SDS011;9219;50.396;8.546;2023-11-21T01:39:31;10.00;;;3.37;;
18188;SDS011;9219;50.396;8.546;2023-11-21T01:41:58;148.90;;;13.23;;
18188;SDS011;9219;50.396;8.546;2023-11-21T01:44:26;11.87;;;4.90;;
18188;SDS011;9219;50.396;8.546;2023-11-21T01:53:14;86.30;;;7.37;;
18188;SDS011;9219;50.396;8.546;2023-11-21T01:55:41;50.67;;;4.80;;
18188;SDS011;9219;50.396;8.546;2023-11-21T01:58:09;25.30;;;5.10;;
18188;SDS011;9219;50.396;8.546;2023-11-21T02:00:38;46.03;;;5.33;;
18188;SDS011;9219;50.396;8.546;2023-11-21T02:03:05;38.90;;;5.70;;
18188;SDS011;9219;50.396;8.546;2023-11-21T02:05:33;103.63;;;8.57;;
18188;SDS011;9219;50.396;8.546;2023-11-21T02:08:00;111.77;;;10.20;;
18188;SDS011;9219;50.396;8.546;2023-11-21T02:10:30;240.63;;;17.10;;
18188;SDS011;9219;50.396;8.546;2023-11-21T02:13:11;90.50;;;8.50;;
18188;SDS011;9219;50.396;8.546;2023-11-21T02:15:43;85.67;;;7.37;;
18188;SDS011;9219;50.396;8.546;2023-11-21T02:18:10;50.57;;;6.50;;
18188;SDS011;9219;50.396;8.546;2023-11-21T02:20:37;14.40;;;4.60;;
18188;SDS011;9219;50.396;8.546;2023-11-21T02:23:08;31.70;;;6.13;;
18188;SDS011;9219;50.396;8.546;2023-11-21T02:25:35;17.47;;;4.80;;
18188;SDS011;9219;50.396;8.546;2023-11-21T02:28:03;88.40;;;6.83;;
18188;SDS011;9219;50.396;8.546;2023-11-21T02:35:34;29.33;;;4.47;;
18188;SDS011;9219;50.396;8.546;2023-11-21T02:38:01;88.63;;;8.77;;
18188;SDS011;9219;50.396;8.546;2023-11-21T02:40:28;173.77;;;12.20;;
18188;SDS011;9219;50.396;8.546;2023-11-21T02:42:56;8.80;;;4.17;;
18188;SDS011;9219;50.396;8.546;2023-11-21T02:45:25;16.10;;;4.60;;
18188;SDS011;9219;50.396;8.546;2023-11-21T02:47:52;29.17;;;5.00;;
18188;SDS011;9219;50.396;8.546;2023-11-21T02:50:21;8.97;;;4.50;;
18188;SDS011;9219;50.396;8.546;2023-11-21T02:52:49;17.87;;;5.03;;
18188;SDS011;9219;50.396;8.546;2023-11-21T03:00:50;22.57;;;3.87;;
18188;SDS011;9219;50.396;8.546;2023-11-21T03:03:18;15.87;;;3.17;;
18188;SDS011;9219;50.396;8.546;2023-11-21T03:05:45;30.10;;;4.40;;
18188;SDS011;9219;50.396;8.546;2023-11-21T03:08:12;134.10;;;8.13;;
18188;SDS011;9219;50.396;8.546;2023-11-21T03:10:39;18.77;;;3.47;;
18188;SDS011;9219;50.396;8.546;2023-11-21T03:13:06;41.43;;;4.53;;
18188;SDS011;9219;50.396;8.546;2023-11-21T03:15:34;79.73;;;7.00;;
18188;SDS011;9219;50.396;8.546;2023-11-21T03:18:02;97.30;;;7.33;;
18188;SDS011;9219;50.396;8.546;2023-11-21T03:26:03;43.00;;;3.63;;
18188;SDS011;9219;50.396;8.546;2023-11-21T03:28:30;34.80;;;3.97;;
18188;SDS011;9219;50.396;8.546;2023-11-21T03:30:57;248.23;;;14.73;;
18188;SDS011;9219;50.396;8.546;2023-11-21T03:33:24;76.17;;;5.60;;
18188;SDS011;9219;50.396;8.546;2023-11-21T03:35:51;107.43;;;5.83;;
18188;SDS011;9219;50.396;8.546;2023-11-21T03:38:18;37.27;;;3.60;;
18188;SDS011;9219;50.396;8.546;2023-11-21T03:40:46;270.67;;;12.07;;
18188;SDS011;9219;50.396;8.546;2023-11-21T03:49:49;34.47;;;4.67;;
18188;SDS011;9219;50.396;8.546;2023-11-21T03:52:16;258.97;;;11.37;;
18188;SDS011;9219;50.396;8.546;2023-11-21T03:54:43;110.90;;;7.00;;
18188;SDS011;9219;50.396;8.546;2023-11-21T03:57:11;81.60;;;6.60;;
18188;SDS011;9219;50.396;8.546;2023-11-21T03:59:39;156.50;;;8.33;;
18188;SDS011;9219;50.396;8.546;2023-11-21T04:02:07;42.23;;;4.47;;
18188;SDS011;9219;50.396;8.546;2023-11-21T04:04:34;129.63;;;9.07;;
18188;SDS011;9219;50.396;8.546;2023-11-21T04:07:02;94.17;;;8.47;;
18188;SDS011;9219;50.396;8.546;2023-11-21T04:09:45;130.83;;;8.93;;
18188;SDS011;9219;50.396;8.546;2023-11-21T04:12:15;125.73;;;8.33;;
18188;SDS011;9219;50.396;8.546;2023-11-21T04:14:42;9.73;;;3.23;;
18188;SDS011;9219;50.396;8.546;2023-11-21T04:17:09;40.53;;;4.57;;
18188;SDS011;9219;50.396;8.546;2023-11-21T04:19:36;45.40;;;5.33;;
18188;SDS011;9219;50.396;8.546;2023-11-21T04:22:03;37.00;;;4.23;;
18188;SDS011;9219;50.396;8.546;2023-11-21T04:24:30;123.53;;;9.03;;
18188;SDS011;9219;50.396;8.546;2023-11-21T04:26:58;94.70;;;7.47;;
18188;SDS011;9219;50.396;8.546;2023-11-21T04:33:34;8.43;;;3.50;;
18188;SDS011;9219;50.396;8.546;2023-11-21T04:36:01;23.00;;;4.33;;
18188;SDS011;9219;50.396;8.546;2023-11-21T04:38:28;46.20;;;4.13;;
18188;SDS011;9219;50.396;8.546;2023-11-21T04:40:55;20.83;;;3.23;;
18188;SDS011;9219;50.396;8.546;2023-11-21T04:43:23;4.70;;;2.67;;
18188;SDS011;9219;50.396;8.546;2023-11-21T04:45:50;99.57;;;8.73;;
18188;SDS011;9219;50.396;8.546;2023-11-21T04:48:17;121.80;;;8.77;;
18188;SDS011;9219;50.396;8.546;2023-11-21T04:50:46;121.30;;;8.83;;
18188;SDS011;9219;50.396;8.546;2023-11-21T04:58:32;178.33;;;15.13;;
18188;SDS011;9219;50.396;8.546;2023-11-21T05:00:59;36.20;;;4.13;;
18188;SDS011;9219;50.396;8.546;2023-11-21T05:03:26;153.23;;;10.93;;
18188;SDS011;9219;50.396;8.546;2023-11-21T05:05:55;45.77;;;5.97;;
18188;SDS011;9219;50.396;8.546;2023-11-21T05:08:23;99.10;;;8.60;;
18188;SDS011;9219;50.396;8.546;2023-11-21T05:10:50;97.70;;;7.80;;
18188;SDS011;9219;50.396;8.546;2023-11-21T05:13:17;41.40;;;5.50;;
18188;SDS011;9219;50.396;8.546;2023-11-21T05:15:47;73.87;;;7.27;;
18188;SDS011;9219;50.396;8.546;2023-11-21T05:23:19;43.87;;;6.63;;
18188;SDS011;9219;50.396;8.546;2023-11-21T05:25:46;101.53;;;8.27;;
18188;SDS011;9219;50.396;8.546;2023-11-21T05:28:13;105.27;;;8.53;;
18188;SDS011;9219;50.396;8.546;2023-11-21T05:30:41;57.67;;;7.13;;
18188;SDS011;9219;50.396;8.546;2023-11-21T05:33:08;215.33;;;13.27;;
18188;SDS011;9219;50.396;8.546;2023-11-21T05:35:35;81.73;;;7.03;;
18188;SDS011;9219;50.396;8.546;2023-11-21T05:38:02;56.87;;;7.60;;
18188;SDS011;9219;50.396;8.546;2023-11-21T05:43:19;32.90;;;5.93;;
18188;SDS011;9219;50.396;8.546;2023-11-21T05:45:47;108.97;;;11.90;;
18188;SDS011;9219;50.396;8.546;2023-11-21T05:48:14;20.80;;;6.43;;
18188;SDS011;9219;50.396;8.546;2023-11-21T05:50:41;43.03;;;7.93;;
18188;SDS011;9219;50.396;8.546;2023-11-21T05:53:08;122.50;;;13.90;;
18188;SDS011;9219;50.396;8.546;2023-11-21T05:55:37;34.67;;;8.87;;
18188;SDS011;9219;50.396;8.546;2023-11-21T05:58:05;12.50;;;6.90;;
18188;SDS011;9219;50.396;8.546;2023-11-21T06:00:33;60.80;;;9.20;;
18188;SDS011;9219;50.396;8.546;2023-11-21T06:03:29;98.17;;;13.97;;
18188;SDS011;9219;50.396;8.546;2023-11-21T06:05:56;41.00;;;8.83;;
18188;SDS011;9219;50.396;8.546;2023-11-21T06:08:23;65.97;;;11.40;;
18188;SDS011;9219;50.396;8.546;2023-11-21T06:10:51;99.37;;;12.30;;
18188;SDS011;9219;50.396;8.546;2023-11-21T06:13:18;354.97;;;33.23;;
18188;SDS011;9219;50.396;8.546;2023-11-21T06:15:50;80.10;;;12.10;;
18188;SDS011;9219;50.396;8.546;2023-11-21T06:18:17;104.03;;;11.77;;
18188;SDS011;9219;50.396;8.546;2023-11-21T06:20:46;15.30;;;6.80;;
18188;SDS011;9219;50.396;8.546;2023-11-21T06:23:40;103.17;;;13.17;;
18188;SDS011;9219;50.396;8.546;2023-11-21T06:26:07;58.50;;;11.87;;
18188;SDS011;9219;50.396;8.546;2023-11-21T06:28:35;134.00;;;15.20;;
18188;SDS011;9219;50.396;8.546;2023-11-21T06:31:02;34.23;;;6.87;;
18188;SDS011;9219;50.396;8.546;2023-11-21T06:33:31;163.37;;;15.17;;
18188;SDS011;9219;50.396;8.546;2023-11-21T06:35:58;78.50;;;10.67;;
18188;SDS011;9219;50.396;8.546;2023-11-21T06:38:26;98.53;;;12.50;;
18188;SDS011;9219;50.396;8.546;2023-11-21T06:40:56;175.27;;;15.00;;
18188;SDS011;9219;50.396;8.546;2023-11-21T06:47:33;242.03;;;21.37;;
18188;SDS011;9219;50.396;8.546;2023-11-21T06:50:00;49.33;;;8.20;;
18188;SDS011;9219;50.396;8.546;2023-11-21T06:52:27;114.97;;;11.93;;
18188;SDS011;9219;50.396;8.546;2023-11-21T06:54:54;213.93;;;17.17;;
18188;SDS011;9219;50.396;8.546;2023-11-21T06:57:22;123.27;;;11.70;;
18188;SDS011;9219;50.396;8.546;2023-11-21T06:59:49;325.50;;;20.77;;
18188;SDS011;9219;50.396;8.546;2023-11-21T07:02:16;347.23;;;25.37;;
18188;SDS011;9219;50.396;8.546;2023-11-21T07:04:45;61.90;;;9.67;;
18188;SDS011;9219;50.396;8.546;2023-11-21T07:12:20;39.93;;;9.97;;
18188;SDS011;9219;50.396;8.546;2023-11-21T07:14:51;147.37;;;18.80;;
18188;SDS011;9219;50.396;8.546;2023-11-21T07:17:19;63.73;;;10.90;;
18188;SDS011;9219;50.396;8.546;2023-11-21T07:19:49;44.03;;;11.27;;
18188;SDS011;9219;50.396;8.546;2023-11-21T07:22:16;282.67;;;26.47;;
18188;SDS011;9219;50.396;8.546;2023-11-21T07:24:47;395.70;;;33.43;;
18188;SDS011;9219;50.396;8.546;2023-11-21T07:27:16;334.20;;;36.30;;
18188;SDS011;9219;50.396;8.546;2023-11-21T07:34:48;118.67;;;16.83;;
18188;SDS011;9219;50.396;8.546;2023-11-21T07:37:15;27.50;;;10.13;;
18188;SDS011;9219;50.396;8.546;2023-11-21T07:39:42;35.40;;;11.20;;
18188;SDS011;9219;50.396;8.546;2023-11-21T07:42:10;61.37;;;12.43;;
18188;SDS011;9219;50.396;8.546;2023-11-21T07:44:37;75.93;;;13.37;;
18188;SDS011;9219;50.396;8.546;2023-11-21T07:47:04;148.70;;;18.53;;
18188;SDS011;9219;50.396;8.546;2023-11-21T07:49:32;141.43;;;19.93;;
18188;SDS011;9219;50.396;8.546;2023-11-21T07:52:00;24.87;;;8.60;;
18188;SDS011;9219;50.396;8.546;2023-11-21T07:54:55;35.83;;;10.13;;
18188;SDS011;9219;50.396;8.546;2023-11-21T07:57:22;78.57;;;14.17;;
18188;SDS011;9219;50.396;8.546;2023-11-21T07:59:50;108.50;;;16.80;;
18188;SDS011;9219;50.396;8.546;2023-11-21T08:02:19;318.33;;;37.30;;
18188;SDS011;9219;50.396;8.546;2023-11-21T08:04:47;132.27;;;18.97;;
18188;SDS011;9219;50.396;8.546;2023-11-21T08:07:15;268.67;;;28.77;;
18188;SDS011;9219;50.396;8.546;2023-11-21T08:09:43;161.17;;;20.73;;
18188;SDS011;9219;50.396;8.546;2023-11-21T08:12:12;73.43;;;12.83;;
18188;SDS011;9219;50.396;8.546;2023-11-21T08:14:55;103.97;;;15.60;;
18188;SDS011;9219;50.396;8.546;2023-11-21T08:17:22;70.33;;;16.63;;
18188;SDS011;9219;50.396;8.546;2023-11-21T08:19:49;88.20;;;14.37;;
18188;SDS011;9219;50.396;8.546;2023-11-21T08:22:17;17.73;;;8.67;;
18188;SDS011;9219;50.396;8.546;2023-11-21T08:24:44;20.27;;;8.07;;
18188;SDS011;9219;50.396;8.546;2023-11-21T08:27:12;76.20;;;14.13;;
18188;SDS011;9219;50.396;8.546;2023-11-21T08:29:42;32.57;;;9.57;;
18188;SDS011;9219;50.396;8.546;2023-11-21T08:32:10;75.10;;;14.57;;
18188;SDS011;9219;50.396;8.546;2023-11-21T08:40:11;25.00;;;9.77;;
18188;SDS011;9219;50.396;8.546;2023-11-21T08:42:42;18.87;;;8.57;;
18188;SDS011;9219;50.396;8.546;2023-11-21T08:45:11;15.43;;;7.30;;
18188;SDS011;9219;50.396;8.546;2023-11-21T08:47:38;27.43;;;10.53;;
18188;SDS011;9219;50.396;8.546;2023-11-21T08:50:06;23.03;;;8.50;;
18188;SDS011;9219;50.396;8.546;2023-11-21T08:52:34;18.77;;;9.60;;
18188;SDS011;9219;50.396;8.546;2023-11-21T08:55:03;24.73;;;8.63;;
18188;SDS011;9219;50.396;8.546;2023-11-21T08:57:34;24.37;;;7.83;;
18188;SDS011;9219;50.396;8.546;2023-11-21T09:07:08;23.27;;;8.53;;
18188;SDS011;9219;50.396;8.546;2023-11-21T09:09:36;14.80;;;7.37;;
18188;SDS011;9219;50.396;8.546;2023-11-21T09:12:03;19.53;;;8.57;;
18188;SDS011;9219;50.396;8.546;2023-11-21T09:14:31;18.43;;;7.60;;
18188;SDS011;9219;50.396;8.546;2023-11-21T09:16:59;13.13;;;6.87;;
18188;SDS011;9219;50.396;8.546;2023-11-21T09:19:26;18.90;;;8.80;;
18188;SDS011;9219;50.396;8.546;2023-11-21T09:25:56;19.73;;;7.93;;
18188;SDS011;9219;50.396;8.546;2023-11-21T09:28:25;19.53;;;7.57;;
18188;SDS011;9219;50.396;8.546;2023-11-21T09:30:53;19.27;;;8.80;;
18188;SDS011;9219;50.396;8.546;2023-11-21T09:33:21;26.17;;;10.10;;
18188;SDS011;9219;50.396;8.546;2023-11-21T09:35:50;13.37;;;8.13;;
18188;SDS011;9219;50.396;8.546;2023-11-21T09:38:18;15.30;;;7.80;;
18188;SDS011;9219;50.396;8.546;2023-11-21T09:40:45;17.00;;;9.30;;
18188;SDS011;9219;50.396;8.546;2023-11-21T09:49:37;15.17;;;8.40;;
18188;SDS011;9219;50.396;8.546;2023-11-21T09:52:05;13.27;;;7.70;;
18188;SDS011;9219;50.396;8.546;2023-11-21T09:54:35;12.80;;;7.93;;
18188;SDS011;9219;50.396;8.546;2023-11-21T09:57:02;20.90;;;7.67;;
18188;SDS011;9219;50.396;8.546;2023-11-21T09:59:31;11.13;;;6.87;;
18188;SDS011;9219;50.396;8.546;2023-11-21T10:01:59;17.97;;;7.43;;
18188;SDS011;9219;50.396;8.546;2023-11-21T10:04:27;17.03;;;7.43;;
18188;SDS011;9219;50.396;8.546;2023-11-21T10:06:55;19.83;;;9.37;;
18188;SDS011;9219;50.396;8.546;2023-11-21T10:12:02;12.97;;;7.20;;
18188;SDS011;9219;50.396;8.546;2023-11-21T10:14:34;14.20;;;7.50;;
18188;SDS011;9219;50.396;8.546;2023-11-21T10:17:03;19.00;;;7.27;;
18188;SDS011;9219;50.396;8.546;2023-11-21T10:19:35;15.00;;;7.57;;
18188;SDS011;9219;50.396;8.546;2023-11-21T10:22:03;12.80;;;6.73;;
18188;SDS011;9219;50.396;8.546;2023-11-21T10:24:30;14.03;;;7.30;;
18188;SDS011;9219;50.396;8.546;2023-11-21T10:27:14;14.13;;;7.53;;
18188;SDS011;9219;50.396;8.546;2023-11-21T10:32:30;20.80;;;7.20;;
18188;SDS011;9219;50.396;8.546;2023-11-21T10:34:58;17.93;;;8.30;;
18188;SDS011;9219;50.396;8.546;2023-11-21T10:37:26;13.03;;;7.60;;
18188;SDS011;9219;50.396;8.546;2023-11-21T10:39:56;12.53;;;7.60;;
18188;SDS011;9219;50.396;8.546;2023-11-21T10:42:25;16.10;;;7.23;;
18188;SDS011;9219;50.396;8.546;2023-11-21T10:44:53;14.43;;;6.53;;
18188;SDS011;9219;50.396;8.546;2023-11-21T10:47:21;12.27;;;6.10;;
18188;SDS011;9219;50.396;8.546;2023-11-21T10:54:53;13.17;;;5.13;;
18188;SDS011;9219;50.396;8.546;2023-11-21T10:57:21;10.90;;;5.70;;
18188;SDS011;9219;50.396;8.546;2023-11-21T10:59:49;12.33;;;5.47;;
18188;SDS011;9219;50.396;8.546;2023-11-21T11:02:20;10.07;;;5.00;;
18188;SDS011;9219;50.396;8.546;2023-11-21T11:04:54;6.27;;;4.30;;
18188;SDS011;9219;50.396;8.546;2023-11-21T11:07:22;18.20;;;4.73;;
18188;SDS011;9219;50.396;8.546;2023-11-21T11:09:53;11.23;;;4.47;;
18188;SDS011;9219;50.396;8.546;2023-11-21T11:12:21;9.30;;;3.90;;
18188;SDS011;9219;50.396;8.546;2023-11-21T11:15:00;7.40;;;4.43;;
18188;SDS011;9219;50.396;8.546;2023-11-21T11:17:29;8.40;;;3.97;;
18188;SDS011;9219;50.396;8.546;2023-11-21T11:19:58;10.03;;;4.43;;
18188;SDS011;9219;50.396;8.546;2023-11-21T11:22:29;10.93;;;5.03;;
18188;SDS011;9219;50.396;8.546;2023-11-21T11:25:19;8.77;;;4.50;;
18188;SDS011;9219;50.396;8.546;2023-11-21T11:27:58;15.20;;;4.57;;
18188;SDS011;9219;50.396;8.546;2023-11-21T11:30:37;10.00;;;4.40;;
18188;SDS011;9219;50.396;8.546;2023-11-21T11:39:37;8.73;;;4.47;;
18188;SDS011;9219;50.396;8.546;2023-11-21T11:42:11;8.93;;;5.43;;
18188;SDS011;9219;50.396;8.546;2023-11-21T11:44:47;7.03;;;4.57;;
18188;SDS011;9219;50.396;8.546;2023-11-21T11:47:20;10.03;;;4.10;;
18188;SDS011;9219;50.396;8.546;2023-11-21T11:50:01;9.90;;;4.23;;
18188;SDS011;9219;50.396;8.546;2023-11-21T11:52:39;10.07;;;5.37;;
18188;SDS011;9219;50.396;8.546;2023-11-21T11:55:10;16.37;;;5.80;;
18188;SDS011;9219;50.396;8.546;2023-11-21T12:02:45;19.50;;;6.37;;
18188;SDS011;9219;50.396;8.546;2023-11-21T12:05:13;12.00;;;5.60;;
18188;SDS011;9219;50.396;8.546;2023-11-21T12:07:42;11.17;;;6.07;;
18188;SDS011;9219;50.396;8.546;2023-11-21T12:10:11;9.87;;;5.37;;
18188;SDS011;9219;50.396;8.546;2023-11-21T12:12:44;16.57;;;5.47;;
18188;SDS011;9219;50.396;8.546;2023-11-21T12:15:15;13.67;;;6.03;;
18188;SDS011;9219;50.396;8.546;2023-11-21T12:17:43;11.90;;;5.63;;
18188;SDS011;9219;50.396;8.546;2023-11-21T12:20:12;12.47;;;7.40;;
18188;SDS011;9219;50.396;8.546;2023-11-21T12:24:25;14.17;;;7.00;;
18188;SDS011;9219;50.396;8.546;2023-11-21T12:26:55;8.03;;;5.00;;
18188;SDS011;9219;50.396;8.546;2023-11-21T12:29:22;10.03;;;4.93;;
18188;SDS011;9219;50.396;8.546;2023-11-21T12:31:49;19.00;;;6.53;;
18188;SDS011;9219;50.396;8.546;2023-11-21T12:34:17;8.13;;;4.30;;
18188;SDS011;9219;50.396;8.546;2023-11-21T12:36:44;17.80;;;5.33;;
18188;SDS011;9219;50.396;8.546;2023-11-21T12:39:12;8.60;;;5.77;;
18188;SDS011;9219;50.396;8.546;2023-11-21T12:41:41;10.03;;;5.33;;
18188;SDS011;9219;50.396;8.546;2023-11-21T12:49:41;14.17;;;5.30;;
18188;SDS011;9219;50.396;8.546;2023-11-21T12:52:10;14.10;;;6.50;;
18188;SDS011;9219;50.396;8.546;2023-11-21T12:54:37;12.30;;;5.43;;
18188;SDS011;9219;50.396;8.546;2023-11-21T12:57:04;12.73;;;6.43;;
18188;SDS011;9219;50.396;8.546;2023-11-21T12:59:34;16.63;;;5.67;;
18188;SDS011;9219;50.396;8.546;2023-11-21T13:02:01;12.77;;;6.03;;
18188;SDS011;9219;50.396;8.546;2023-11-21T13:04:32;9.77;;;5.50;;
18188;SDS011;9219;50.396;8.546;2023-11-21T13:07:05;11.37;;;5.00;;
18188;SDS011;9219;50.396;8.546;2023-11-21T13:09:53;10.30;;;5.27;;
18188;SDS011;9219;50.396;8.546;2023-11-21T13:12:23;15.03;;;6.10;;
18188;SDS011;9219;50.396;8.546;2023-11-21T13:14:51;9.40;;;5.50;;
18188;SDS011;9219;50.396;8.546;2023-11-21T13:17:18;12.67;;;5.70;;
18188;SDS011;9219;50.396;8.546;2023-11-21T13:19:47;9.40;;;5.30;;
18188;SDS011;9219;50.396;8.546;2023-11-21T13:22:15;9.83;;;5.00;;
18188;SDS011;9219;50.396;8.546;2023-11-21T13:24:44;13.57;;;5.73;;
18188;SDS011;9219;50.396;8.546;2023-11-21T13:27:12;14.40;;;5.63;;
18188;SDS011;9219;50.396;8.546;2023-11-21T13:34:50;12.17;;;5.93;;
18188;SDS011;9219;50.396;8.546;2023-11-21T13:37:21;16.33;;;6.30;;
18188;SDS011;9219;50.396;8.546;2023-11-21T13:39:50;14.83;;;6.40;;
18188;SDS011;9219;50.396;8.546;2023-11-21T13:42:18;13.77;;;6.33;;
18188;SDS011;9219;50.396;8.546;2023-11-21T13:44:49;13.53;;;6.87;;
18188;SDS011;9219;50.396;8.546;2023-11-21T13:47:17;14.77;;;7.00;;
18188;SDS011;9219;50.396;8.546;2023-11-21T13:49:44;15.07;;;7.23;;
18188;SDS011;9219;50.396;8.546;2023-11-21T13:55:29;24.57;;;9.80;;
18188;SDS011;9219;50.396;8.546;2023-11-21T13:57:56;22.27;;;8.93;;
18188;SDS011;9219;50.396;8.546;2023-11-21T14:00:23;18.10;;;8.50;;
18188;SDS011;9219;50.396;8.546;2023-11-21T14:03:07;61.93;;;12.03;;
18188;SDS011;9219;50.396;8.546;2023-11-21T14:05:43;20.10;;;9.47;;
18188;SDS011;9219;50.396;8.546;2023-11-21T14:08:13;20.90;;;8.57;;
18188;SDS011;9219;50.396;8.546;2023-11-21T14:10:43;22.03;;;8.80;;
18188;SDS011;9219;50.396;8.546;2023-11-21T14:18:19;30.73;;;10.20;;
18188;SDS011;9219;50.396;8.546;2023-11-21T14:20:53;35.60;;;9.90;;
18188;SDS011;9219;50.396;8.546;2023-11-21T14:23:20;43.80;;;11.13;;
18188;SDS011;9219;50.396;8.546;2023-11-21T14:25:49;25.57;;;9.43;;
18188;SDS011;9219;50.396;8.546;2023-11-21T14:28:18;43.47;;;11.03;;
18188;SDS011;9219;50.396;8.546;2023-11-21T14:30:45;37.80;;;12.37;;
18188;SDS011;9219;50.396;8.546;2023-11-21T14:33:12;53.23;;;11.77;;
18188;SDS011;9219;50.396;8.546;2023-11-21T14:38:19;55.93;;;13.90;;
18188;SDS011;9219;50.396;8.546;2023-11-21T14:40:46;35.83;;;10.77;;
18188;SDS011;9219;50.396;8.546;2023-11-21T14:43:14;169.50;;;20.07;;
18188;SDS011;9219;50.396;8.546;2023-11-21T14:45:43;151.30;;;23.43;;
18188;SDS011;9219;50.396;8.546;2023-11-21T14:48:10;295.97;;;35.97;;
18188;SDS011;9219;50.396;8.546;2023-11-21T14:50:42;387.80;;;34.10;;
18188;SDS011;9219;50.396;8.546;2023-11-21T14:53:17;351.47;;;35.27;;
18188;SDS011;9219;50.396;8.546;2023-11-21T14:59:53;28.23;;;10.63;;
18188;SDS011;9219;50.396;8.546;2023-11-21T15:02:24;265.03;;;28.90;;
18188;SDS011;9219;50.396;8.546;2023-11-21T15:05:14;224.60;;;26.10;;
18188;SDS011;9219;50.396;8.546;2023-11-21T15:07:42;34.17;;;11.63;;
18188;SDS011;9219;50.396;8.546;2023-11-21T15:10:10;283.67;;;30.50;;
18188;SDS011;9219;50.396;8.546;2023-11-21T15:12:41;94.57;;;16.03;;
18188;SDS011;9219;50.396;8.546;2023-11-21T15:15:10;260.53;;;32.33;;
18188;SDS011;9219;50.396;8.546;2023-11-21T15:17:37;379.30;;;39.87;;
18188;SDS011;9219;50.396;8.546;2023-11-21T15:20:33;188.80;;;23.13;;
18188;SDS011;9219;50.396;8.546;2023-11-21T15:23:01;75.93;;;14.90;;
18188;SDS011;9219;50.396;8.546;2023-11-21T15:25:30;45.23;;;12.63;;
18188;SDS011;9219;50.396;8.546;2023-11-21T15:27:58;102.37;;;18.63;;
18188;SDS011;9219;50.396;8.546;2023-11-21T15:30:25;55.40;;;12.60;;
18188;SDS011;9219;50.396;8.546;2023-11-21T15:32:53;32.83;;;11.10;;
18188;SDS011;9219;50.396;8.546;2023-11-21T15:35:20;143.27;;;21.17;;
18188;SDS011;9219;50.396;8.546;2023-11-21T15:40:31;35.90;;;11.63;;
18188;SDS011;9219;50.396;8.546;2023-11-21T15:42:58;20.57;;;9.30;;
18188;SDS011;9219;50.396;8.546;2023-11-21T15:45:26;28.63;;;10.30;;
18188;SDS011;9219;50.396;8.546;2023-11-21T15:47:53;119.10;;;20.30;;
18188;SDS011;9219;50.396;8.546;2023-11-21T15:50:20;90.87;;;15.97;;
18188;SDS011;9219;50.396;8.546;2023-11-21T15:52:47;23.47;;;9.93;;
18188;SDS011;9219;50.396;8.546;2023-11-21T15:55:23;53.97;;;13.90;;
18188;SDS011;9219;50.396;8.546;2023-11-21T16:01:27;24.73;;;11.20;;
18188;SDS011;9219;50.396;8.546;2023-11-21T16:03:54;91.53;;;15.37;;
18188;SDS011;9219;50.396;8.546;2023-11-21T16:06:22;17.57;;;8.93;;
18188;SDS011;9219;50.396;8.546;2023-11-21T16:08:49;19.60;;;9.20;;
18188;SDS011;9219;50.396;8.546;2023-11-21T16:11:16;30.63;;;10.63;;
18188;SDS011;9219;50.396;8.546;2023-11-21T16:13:44;25.17;;;10.13;;
18188;SDS011;9219;50.396;8.546;2023-11-21T16:16:16;19.33;;;8.07;;
18188;SDS011;9219;50.396;8.546;2023-11-21T16:25:08;21.27;;;7.53;;
18188;SDS011;9219;50.396;8.546;2023-11-21T16:27:37;10.40;;;5.27;;
18188;SDS011;9219;50.396;8.546;2023-11-21T16:30:04;10.67;;;5.97;;
18188;SDS011;9219;50.396;8.546;2023-11-21T16:32:32;14.23;;;6.27;;
18188;SDS011;9219;50.396;8.546;2023-11-21T16:35:01;18.27;;;7.27;;
18188;SDS011;9219;50.396;8.546;2023-11-21T16:37:29;15.60;;;7.20;;
18188;SDS011;9219;50.396;8.546;2023-11-21T16:39:57;14.70;;;6.80;;
18188;SDS011;9219;50.396;8.546;2023-11-21T16:46:04;12.47;;;7.47;;
18188;SDS011;9219;50.396;8.546;2023-11-21T16:48:32;10.37;;;6.40;;
18188;SDS011;9219;50.396;8.546;2023-11-21T16:50:59;17.33;;;7.60;;
18188;SDS011;9219;50.396;8.546;2023-11-21T16:53:26;10.97;;;6.33;;
18188;SDS011;9219;50.396;8.546;2023-11-21T16:55:53;14.90;;;6.63;;
18188;SDS011;9219;50.396;8.546;2023-11-21T16:58:21;14.40;;;7.93;;
18188;SDS011;9219;50.396;8.546;2023-11-21T17:00:48;10.70;;;6.67;;
18188;SDS011;9219;50.396;8.546;2023-11-21T17:03:17;15.03;;;8.03;;
18188;SDS011;9219;50.396;8.546;2023-11-21T17:11:18;11.43;;;6.90;;
18188;SDS011;9219;50.396;8.546;2023-11-21T17:13:48;14.13;;;7.60;;
18188;SDS011;9219;50.396;8.546;2023-11-21T17:16:16;14.17;;;7.60;;
18188;SDS011;9219;50.396;8.546;2023-11-21T17:18:43;11.80;;;6.50;;
18188;SDS011;9219;50.396;8.546;2023-11-21T17:21:10;15.20;;;6.80;;
18188;SDS011;9219;50.396;8.546;2023-11-21T17:23:51;10.87;;;6.27;;
18188;SDS011;9219;50.396;8.546;2023-11-21T17:26:19;10.17;;;6.00;;
18188;SDS011;9219;50.396;8.546;2023-11-21T17:32:14;10.70;;;5.93;;
18188;SDS011;9219;50.396;8.546;2023-11-21T17:34:42;9.07;;;6.10;;
18188;SDS011;9219;50.396;8.546;2023-11-21T17:37:10;9.73;;;5.87;;
18188;SDS011;9219;50.396;8.546;2023-11-21T17:39:37;11.37;;;6.53;;
18188;SDS011;9219;50.396;8.546;2023-11-21T17:42:06;12.47;;;7.53;;
18188;SDS011;9219;50.396;8.546;2023-11-21T17:44:34;16.47;;;6.50;;
18188;SDS011;9219;50.396;8.546;2023-11-21T17:47:01;10.10;;;6.20;;
18188;SDS011;9219;50.396;8.546;2023-11-21T17:49:29;12.80;;;7.87;;
18188;SDS011;9219;50.396;8.546;2023-11-21T17:53:27;7.90;;;6.07;;